Terminal Aerodrome Forecast
Issued by NWS Albany, NY

Home | Current Version | Previous Version | Text Only | Print | Product List | Glossary On
Versions: 1 2 3 4 5 6 7 8 9 10 11 12 13 14
000
FTUS41 KALY 270521
TAFGFL
TAF
KGFL 270521Z 2706/2806 34006KT P6SM VCSH SCT050 OVC070
      TEMPO 2706/2709 -SHRA SCT035 OVC050
     FM270900 36005KT P6SM VCSH SCT030 OVC050
     FM271400 02007KT P6SM VCSH SCT030 OVC045 PROB30 2715/2718 -SHRA
      BKN030
     FM271800 02009G19KT P6SM -SHRA OVC040
     FM280000 36007G17KT P6SM OVC030=

USA.gov is the U.S. government's official web portal to all federal, state and local government web resources and services.